sensor_id;sensor_type;location;lat;lon;timestamp;temperature;humidity
5059;DHT22;2548;52.050;11.036;2023-04-22T00:00:08;9.90;99.90
5059;DHT22;2548;52.050;11.036;2023-04-22T00:02:37;9.90;99.90
5059;DHT22;2548;52.050;11.036;2023-04-22T00:05:07;9.80;99.90
5059;DHT22;2548;52.050;11.036;2023-04-22T00:07:38;9.80;99.90
5059;DHT22;2548;52.050;11.036;2023-04-22T00:10:06;9.80;99.90
5059;DHT22;2548;52.050;11.036;2023-04-22T00:12:34;9.80;99.90
5059;DHT22;2548;52.050;11.036;2023-04-22T00:15:01;9.80;99.90
5059;DHT22;2548;52.050;11.036;2023-04-22T00:17:31;9.70;99.90
5059;DHT22;2548;52.050;11.036;2023-04-22T00:19:59;9.70;99.90
5059;DHT22;2548;52.050;11.036;2023-04-22T00:22:27;9.80;99.90
5059;DHT22;2548;52.050;11.036;2023-04-22T00:24:54;9.60;99.90
5059;DHT22;2548;52.050;11.036;2023-04-22T00:27:22;9.50;99.90
5059;DHT22;2548;52.050;11.036;2023-04-22T00:29:49;9.40;99.90
5059;DHT22;2548;52.050;11.036;2023-04-22T00:32:17;9.30;99.90
5059;DHT22;2548;52.050;11.036;2023-04-22T00:34:46;9.20;99.90
5059;DHT22;2548;52.050;11.036;2023-04-22T00:37:15;9.20;99.90
5059;DHT22;2548;52.050;11.036;2023-04-22T00:39:42;9.20;99.90
5059;DHT22;2548;52.050;11.036;2023-04-22T00:42:10;9.10;99.90
5059;DHT22;2548;52.050;11.036;2023-04-22T00:44:40;9.10;99.90
5059;DHT22;2548;52.050;11.036;2023-04-22T00:47:08;9.10;99.90
5059;DHT22;2548;52.050;11.036;2023-04-22T00:49:35;9.10;99.90
5059;DHT22;2548;52.050;11.036;2023-04-22T00:52:04;9.00;99.90
5059;DHT22;2548;52.050;11.036;2023-04-22T00:54:33;9.00;99.90
5059;DHT22;2548;52.050;11.036;2023-04-22T00:57:02;9.00;99.90
5059;DHT22;2548;52.050;11.036;2023-04-22T00:59:30;9.00;99.90
5059;DHT22;2548;52.050;11.036;2023-04-22T01:01:59;9.00;99.90
5059;DHT22;2548;52.050;11.036;2023-04-22T01:04:26;9.00;99.90
5059;DHT22;2548;52.050;11.036;2023-04-22T01:06:54;8.90;99.90
5059;DHT22;2548;52.050;11.036;2023-04-22T01:09:23;8.90;99.90
5059;DHT22;2548;52.050;11.036;2023-04-22T01:11:51;8.80;99.90
5059;DHT22;2548;52.050;11.036;2023-04-22T01:14:18;8.80;99.90
5059;DHT22;2548;52.050;11.036;2023-04-22T01:16:46;8.80;99.90
5059;DHT22;2548;52.050;11.036;2023-04-22T01:19:14;8.90;99.90
5059;DHT22;2548;52.050;11.036;2023-04-22T01:21:42;8.80;99.90
5059;DHT22;2548;52.050;11.036;2023-04-22T01:24:12;8.80;99.90
5059;DHT22;2548;52.050;11.036;2023-04-22T01:26:40;8.80;99.90
5059;DHT22;2548;52.050;11.036;2023-04-22T01:29:07;8.80;99.90
5059;DHT22;2548;52.050;11.036;2023-04-22T01:31:35;8.80;99.90
5059;DHT22;2548;52.050;11.036;2023-04-22T01:34:03;8.70;99.90
5059;DHT22;2548;52.050;11.036;2023-04-22T01:36:31;8.70;99.90
5059;DHT22;2548;52.050;11.036;2023-04-22T01:38:59;8.70;99.90
5059;DHT22;2548;52.050;11.036;2023-04-22T01:41:28;8.60;99.90
5059;DHT22;2548;52.050;11.036;2023-04-22T01:43:57;8.60;99.90
5059;DHT22;2548;52.050;11.036;2023-04-22T01:46:27;8.50;99.90
5059;DHT22;2548;52.050;11.036;2023-04-22T01:48:54;8.50;99.90
5059;DHT22;2548;52.050;11.036;2023-04-22T01:51:22;8.50;99.90
5059;DHT22;2548;52.050;11.036;2023-04-22T01:53:50;8.50;99.90
5059;DHT22;2548;52.050;11.036;2023-04-22T01:56:17;8.50;99.90
5059;DHT22;2548;52.050;11.036;2023-04-22T01:58:47;8.50;99.90
5059;DHT22;2548;52.050;11.036;2023-04-22T02:01:14;8.50;99.90
5059;DHT22;2548;52.050;11.036;2023-04-22T02:03:42;8.50;99.90
5059;DHT22;2548;52.050;11.036;2023-04-22T02:06:11;8.50;99.90
5059;DHT22;2548;52.050;11.036;2023-04-22T02:08:39;8.50;99.90
5059;DHT22;2548;52.050;11.036;2023-04-22T02:11:06;8.50;99.90
5059;DHT22;2548;52.050;11.036;2023-04-22T02:13:34;8.50;99.90
5059;DHT22;2548;52.050;11.036;2023-04-22T02:16:04;8.50;99.90
5059;DHT22;2548;52.050;11.036;2023-04-22T02:18:32;8.50;99.90
5059;DHT22;2548;52.050;11.036;2023-04-22T02:21:00;8.50;99.90
5059;DHT22;2548;52.050;11.036;2023-04-22T02:23:28;8.40;99.90
5059;DHT22;2548;52.050;11.036;2023-04-22T02:25:55;8.40;99.90
5059;DHT22;2548;52.050;11.036;2023-04-22T02:28:23;8.40;99.90
5059;DHT22;2548;52.050;11.036;2023-04-22T02:30:50;8.40;99.90
5059;DHT22;2548;52.050;11.036;2023-04-22T02:33:19;8.40;99.90
5059;DHT22;2548;52.050;11.036;2023-04-22T02:35:47;8.30;99.90
5059;DHT22;2548;52.050;11.036;2023-04-22T02:38:18;8.30;99.90
5059;DHT22;2548;52.050;11.036;2023-04-22T02:40:46;8.30;99.90
5059;DHT22;2548;52.050;11.036;2023-04-22T02:43:13;8.20;99.90
5059;DHT22;2548;52.050;11.036;2023-04-22T02:45:41;8.20;99.90
5059;DHT22;2548;52.050;11.036;2023-04-22T02:48:08;8.10;99.90
5059;DHT22;2548;52.050;11.036;2023-04-22T02:50:37;8.10;99.90
5059;DHT22;2548;52.050;11.036;2023-04-22T02:53:05;8.10;99.90
5059;DHT22;2548;52.050;11.036;2023-04-22T02:55:32;8.10;99.90
5059;DHT22;2548;52.050;11.036;2023-04-22T02:58:00;8.00;99.90
5059;DHT22;2548;52.050;11.036;2023-04-22T03:00:27;7.90;99.90
5059;DHT22;2548;52.050;11.036;2023-04-22T03:02:55;7.80;99.90
5059;DHT22;2548;52.050;11.036;2023-04-22T03:05:29;7.80;99.90
5059;DHT22;2548;52.050;11.036;2023-04-22T03:07:58;7.70;99.90
5059;DHT22;2548;52.050;11.036;2023-04-22T03:13:02;7.60;99.90
5059;DHT22;2548;52.050;11.036;2023-04-22T03:15:35;7.50;99.90
5059;DHT22;2548;52.050;11.036;2023-04-22T03:18:03;7.50;99.90
5059;DHT22;2548;52.050;11.036;2023-04-22T03:20:31;7.40;99.90
5059;DHT22;2548;52.050;11.036;2023-04-22T03:23:02;7.30;99.90
5059;DHT22;2548;52.050;11.036;2023-04-22T03:25:32;7.30;99.90
5059;DHT22;2548;52.050;11.036;2023-04-22T03:28:03;7.30;99.90
5059;DHT22;2548;52.050;11.036;2023-04-22T03:30:36;7.20;99.90
5059;DHT22;2548;52.050;11.036;2023-04-22T03:33:04;7.20;99.90
5059;DHT22;2548;52.050;11.036;2023-04-22T03:35:58;7.20;99.90
5059;DHT22;2548;52.050;11.036;2023-04-22T03:38:36;7.10;99.90
5059;DHT22;2548;52.050;11.036;2023-04-22T03:41:03;7.10;99.90
5059;DHT22;2548;52.050;11.036;2023-04-22T03:43:43;7.00;99.90
5059;DHT22;2548;52.050;11.036;2023-04-22T03:46:11;7.00;99.90
5059;DHT22;2548;52.050;11.036;2023-04-22T03:48:52;7.00;99.90
5059;DHT22;2548;52.050;11.036;2023-04-22T03:51:29;7.00;99.90
5059;DHT22;2548;52.050;11.036;2023-04-22T03:54:03;7.00;99.90
5059;DHT22;2548;52.050;11.036;2023-04-22T03:56:34;7.00;99.90
5059;DHT22;2548;52.050;11.036;2023-04-22T03:59:17;7.00;99.90
5059;DHT22;2548;52.050;11.036;2023-04-22T04:01:45;6.90;99.90
5059;DHT22;2548;52.050;11.036;2023-04-22T04:04:15;6.90;99.90
5059;DHT22;2548;52.050;11.036;2023-04-22T04:06:57;6.90;99.90
5059;DHT22;2548;52.050;11.036;2023-04-22T04:09:27;6.70;99.90
5059;DHT22;2548;52.050;11.036;2023-04-22T04:11:56;6.70;99.90
5059;DHT22;2548;52.050;11.036;2023-04-22T04:14:29;6.60;99.90
5059;DHT22;2548;52.050;11.036;2023-04-22T04:16:57;6.60;99.90
5059;DHT22;2548;52.050;11.036;2023-04-22T04:19:28;6.70;99.90
5059;DHT22;2548;52.050;11.036;2023-04-22T04:21:56;6.70;99.90
5059;DHT22;2548;52.050;11.036;2023-04-22T04:24:33;6.70;99.90
5059;DHT22;2548;52.050;11.036;2023-04-22T04:27:06;6.80;99.90
5059;DHT22;2548;52.050;11.036;2023-04-22T04:29:42;6.80;99.90
5059;DHT22;2548;52.050;11.036;2023-04-22T04:32:15;6.80;99.90
5059;DHT22;2548;52.050;11.036;2023-04-22T04:34:50;6.90;99.90
5059;DHT22;2548;52.050;11.036;2023-04-22T04:37:19;6.90;99.90
5059;DHT22;2548;52.050;11.036;2023-04-22T04:39:59;7.00;99.90
5059;DHT22;2548;52.050;11.036;2023-04-22T04:42:39;7.00;99.90
5059;DHT22;2548;52.050;11.036;2023-04-22T04:45:13;7.10;99.90
5059;DHT22;2548;52.050;11.036;2023-04-22T04:47:48;7.30;99.90
5059;DHT22;2548;52.050;11.036;2023-04-22T04:50:23;7.30;99.90
5059;DHT22;2548;52.050;11.036;2023-04-22T04:52:55;7.40;99.90
5059;DHT22;2548;52.050;11.036;2023-04-22T04:55:31;7.40;99.90
5059;DHT22;2548;52.050;11.036;2023-04-22T04:58:00;7.50;99.90
5059;DHT22;2548;52.050;11.036;2023-04-22T05:00:29;7.50;99.90
5059;DHT22;2548;52.050;11.036;2023-04-22T05:03:02;7.60;99.90
5059;DHT22;2548;52.050;11.036;2023-04-22T05:05:30;7.60;99.90
5059;DHT22;2548;52.050;11.036;2023-04-22T05:07:58;7.70;99.90
5059;DHT22;2548;52.050;11.036;2023-04-22T05:10:26;7.80;99.90
5059;DHT22;2548;52.050;11.036;2023-04-22T05:13:00;7.80;99.90
5059;DHT22;2548;52.050;11.036;2023-04-22T05:15:29;7.90;99.90
5059;DHT22;2548;52.050;11.036;2023-04-22T05:17:56;7.90;99.90
5059;DHT22;2548;52.050;11.036;2023-04-22T05:20:24;8.00;99.90
5059;DHT22;2548;52.050;11.036;2023-04-22T05:22:52;8.00;99.90
5059;DHT22;2548;52.050;11.036;2023-04-22T05:25:22;8.10;99.90
5059;DHT22;2548;52.050;11.036;2023-04-22T05:27:57;8.10;99.90
5059;DHT22;2548;52.050;11.036;2023-04-22T05:30:29;8.20;99.90
5059;DHT22;2548;52.050;11.036;2023-04-22T05:32:57;8.20;99.90
5059;DHT22;2548;52.050;11.036;2023-04-22T05:35:25;8.30;99.90
5059;DHT22;2548;52.050;11.036;2023-04-22T05:37:53;8.40;99.90
5059;DHT22;2548;52.050;11.036;2023-04-22T05:40:20;8.50;99.90
5059;DHT22;2548;52.050;11.036;2023-04-22T05:42:48;8.60;99.90
5059;DHT22;2548;52.050;11.036;2023-04-22T05:45:19;8.70;99.90
5059;DHT22;2548;52.050;11.036;2023-04-22T05:47:48;8.70;99.90
5059;DHT22;2548;52.050;11.036;2023-04-22T05:50:17;8.90;99.90
5059;DHT22;2548;52.050;11.036;2023-04-22T05:52:59;9.00;99.90
5059;DHT22;2548;52.050;11.036;2023-04-22T05:55:28;9.10;99.90
5059;DHT22;2548;52.050;11.036;2023-04-22T05:58:02;9.20;99.90
5059;DHT22;2548;52.050;11.036;2023-04-22T06:00:46;9.30;99.90
5059;DHT22;2548;52.050;11.036;2023-04-22T06:03:40;9.40;99.90
5059;DHT22;2548;52.050;11.036;2023-04-22T06:06:08;9.50;99.90
5059;DHT22;2548;52.050;11.036;2023-04-22T06:08:36;9.60;99.90
5059;DHT22;2548;52.050;11.036;2023-04-22T06:11:04;9.70;99.90
5059;DHT22;2548;52.050;11.036;2023-04-22T06:13:38;9.80;99.90
5059;DHT22;2548;52.050;11.036;2023-04-22T06:16:05;10.00;99.90
5059;DHT22;2548;52.050;11.036;2023-04-22T06:18:33;10.10;99.90
5059;DHT22;2548;52.050;11.036;2023-04-22T06:21:04;10.20;99.90
5059;DHT22;2548;52.050;11.036;2023-04-22T06:23:32;10.30;99.90
5059;DHT22;2548;52.050;11.036;2023-04-22T06:25:59;10.50;99.90
5059;DHT22;2548;52.050;11.036;2023-04-22T06:28:30;10.60;99.90
5059;DHT22;2548;52.050;11.036;2023-04-22T06:31:04;10.70;99.90
5059;DHT22;2548;52.050;11.036;2023-04-22T06:33:31;10.80;99.90
5059;DHT22;2548;52.050;11.036;2023-04-22T06:36:01;10.90;99.90
5059;DHT22;2548;52.050;11.036;2023-04-22T06:38:32;11.00;99.90
5059;DHT22;2548;52.050;11.036;2023-04-22T06:41:26;11.20;99.90
5059;DHT22;2548;52.050;11.036;2023-04-22T06:43:58;11.30;99.90
5059;DHT22;2548;52.050;11.036;2023-04-22T06:46:49;11.50;99.90
5059;DHT22;2548;52.050;11.036;2023-04-22T06:49:35;11.60;99.90
5059;DHT22;2548;52.050;11.036;2023-04-22T06:52:19;11.70;99.90
5059;DHT22;2548;52.050;11.036;2023-04-22T06:54:49;11.90;99.90
5059;DHT22;2548;52.050;11.036;2023-04-22T06:57:20;12.00;99.90
5059;DHT22;2548;52.050;11.036;2023-04-22T06:59:47;12.10;99.90
5059;DHT22;2548;52.050;11.036;2023-04-22T07:02:21;12.20;99.90
5059;DHT22;2548;52.050;11.036;2023-04-22T07:04:49;12.30;99.90
5059;DHT22;2548;52.050;11.036;2023-04-22T07:07:25;12.40;99.90
5059;DHT22;2548;52.050;11.036;2023-04-22T07:09:54;12.50;99.90
5059;DHT22;2548;52.050;11.036;2023-04-22T07:12:23;12.70;99.90
5059;DHT22;2548;52.050;11.036;2023-04-22T07:14:51;12.80;99.90
5059;DHT22;2548;52.050;11.036;2023-04-22T07:17:19;13.00;99.90
5059;DHT22;2548;52.050;11.036;2023-04-22T07:19:47;13.20;99.90
5059;DHT22;2548;52.050;11.036;2023-04-22T07:22:15;13.30;99.90
5059;DHT22;2548;52.050;11.036;2023-04-22T07:24:43;13.40;99.90
5059;DHT22;2548;52.050;11.036;2023-04-22T07:27:12;13.60;99.90
5059;DHT22;2548;52.050;11.036;2023-04-22T07:29:39;13.70;99.90
5059;DHT22;2548;52.050;11.036;2023-04-22T07:32:07;13.90;99.90
5059;DHT22;2548;52.050;11.036;2023-04-22T07:34:38;14.00;99.90
5059;DHT22;2548;52.050;11.036;2023-04-22T07:37:05;14.20;99.90
5059;DHT22;2548;52.050;11.036;2023-04-22T07:39:34;14.20;99.90
5059;DHT22;2548;52.050;11.036;2023-04-22T07:42:02;14.30;99.90
5059;DHT22;2548;52.050;11.036;2023-04-22T07:44:31;14.40;99.90
5059;DHT22;2548;52.050;11.036;2023-04-22T07:46:59;14.50;99.90
5059;DHT22;2548;52.050;11.036;2023-04-22T07:49:26;14.50;99.90
5059;DHT22;2548;52.050;11.036;2023-04-22T07:51:55;14.60;99.90
5059;DHT22;2548;52.050;11.036;2023-04-22T07:54:23;14.70;99.90
5059;DHT22;2548;52.050;11.036;2023-04-22T07:56:57;14.90;99.90
5059;DHT22;2548;52.050;11.036;2023-04-22T07:59:24;15.00;99.90
5059;DHT22;2548;52.050;11.036;2023-04-22T08:01:56;15.10;99.90
5059;DHT22;2548;52.050;11.036;2023-04-22T08:04:23;15.20;99.90
5059;DHT22;2548;52.050;11.036;2023-04-22T08:06:51;15.30;99.90
5059;DHT22;2548;52.050;11.036;2023-04-22T08:09:20;15.40;99.90
5059;DHT22;2548;52.050;11.036;2023-04-22T08:11:50;15.50;99.90
5059;DHT22;2548;52.050;11.036;2023-04-22T08:14:18;15.60;99.90
5059;DHT22;2548;52.050;11.036;2023-04-22T08:16:52;15.80;99.90
5059;DHT22;2548;52.050;11.036;2023-04-22T08:19:27;15.90;99.90
5059;DHT22;2548;52.050;11.036;2023-04-22T08:21:55;16.10;99.90
5059;DHT22;2548;52.050;11.036;2023-04-22T08:24:23;16.10;99.90
5059;DHT22;2548;52.050;11.036;2023-04-22T08:26:51;16.10;99.90
5059;DHT22;2548;52.050;11.036;2023-04-22T08:29:18;16.10;99.90
5059;DHT22;2548;52.050;11.036;2023-04-22T08:31:46;16.30;99.90
5059;DHT22;2548;52.050;11.036;2023-04-22T08:34:13;16.40;99.90
5059;DHT22;2548;52.050;11.036;2023-04-22T08:36:43;16.60;99.90
5059;DHT22;2548;52.050;11.036;2023-04-22T08:39:16;16.70;99.90
5059;DHT22;2548;52.050;11.036;2023-04-22T08:41:44;16.80;99.90
5059;DHT22;2548;52.050;11.036;2023-04-22T08:44:13;16.90;99.90
5059;DHT22;2548;52.050;11.036;2023-04-22T08:46:43;17.00;99.90
5059;DHT22;2548;52.050;11.036;2023-04-22T08:49:13;17.10;99.90
5059;DHT22;2548;52.050;11.036;2023-04-22T08:51:43;17.20;99.90
5059;DHT22;2548;52.050;11.036;2023-04-22T08:54:11;17.30;99.90
5059;DHT22;2548;52.050;11.036;2023-04-22T08:56:40;17.50;99.90
5059;DHT22;2548;52.050;11.036;2023-04-22T08:59:09;17.60;99.90
5059;DHT22;2548;52.050;11.036;2023-04-22T09:01:38;17.80;99.90
5059;DHT22;2548;52.050;11.036;2023-04-22T09:04:08;18.10;99.90
5059;DHT22;2548;52.050;11.036;2023-04-22T09:06:37;18.20;99.90
5059;DHT22;2548;52.050;11.036;2023-04-22T09:09:06;18.30;99.90
5059;DHT22;2548;52.050;11.036;2023-04-22T09:11:35;18.40;99.90
5059;DHT22;2548;52.050;11.036;2023-04-22T09:14:03;18.40;99.90
5059;DHT22;2548;52.050;11.036;2023-04-22T09:16:32;18.50;99.90
5059;DHT22;2548;52.050;11.036;2023-04-22T09:18:59;18.60;99.90
5059;DHT22;2548;52.050;11.036;2023-04-22T09:21:27;18.70;99.90
5059;DHT22;2548;52.050;11.036;2023-04-22T09:23:55;18.70;99.90
5059;DHT22;2548;52.050;11.036;2023-04-22T09:26:30;18.80;99.90
5059;DHT22;2548;52.050;11.036;2023-04-22T09:29:00;18.80;99.90
5059;DHT22;2548;52.050;11.036;2023-04-22T09:31:29;18.90;99.90
5059;DHT22;2548;52.050;11.036;2023-04-22T09:34:06;19.00;99.90
5059;DHT22;2548;52.050;11.036;2023-04-22T09:36:34;19.10;99.90
5059;DHT22;2548;52.050;11.036;2023-04-22T09:39:06;19.20;99.90
5059;DHT22;2548;52.050;11.036;2023-04-22T09:41:39;19.20;99.90
5059;DHT22;2548;52.050;11.036;2023-04-22T09:44:09;19.30;99.90
5059;DHT22;2548;52.050;11.036;2023-04-22T09:46:41;19.50;99.90
5059;DHT22;2548;52.050;11.036;2023-04-22T09:49:10;19.60;99.90
5059;DHT22;2548;52.050;11.036;2023-04-22T09:51:40;19.70;99.90
5059;DHT22;2548;52.050;11.036;2023-04-22T09:54:14;19.80;99.90
5059;DHT22;2548;52.050;11.036;2023-04-22T09:56:45;19.90;99.90
5059;DHT22;2548;52.050;11.036;2023-04-22T09:59:18;20.00;99.90
5059;DHT22;2548;52.050;11.036;2023-04-22T10:01:48;20.00;99.90
5059;DHT22;2548;52.050;11.036;2023-04-22T10:04:16;20.10;99.90
5059;DHT22;2548;52.050;11.036;2023-04-22T10:06:46;20.30;99.90
5059;DHT22;2548;52.050;11.036;2023-04-22T10:09:16;20.30;99.90
5059;DHT22;2548;52.050;11.036;2023-04-22T10:11:50;20.40;99.90
5059;DHT22;2548;52.050;11.036;2023-04-22T10:14:20;20.60;99.90
5059;DHT22;2548;52.050;11.036;2023-04-22T10:16:53;20.70;99.90
5059;DHT22;2548;52.050;11.036;2023-04-22T10:19:29;20.80;99.90
5059;DHT22;2548;52.050;11.036;2023-04-22T10:22:00;20.90;99.90
5059;DHT22;2548;52.050;11.036;2023-04-22T10:24:34;21.10;99.90
5059;DHT22;2548;52.050;11.036;2023-04-22T10:27:04;21.20;99.90
5059;DHT22;2548;52.050;11.036;2023-04-22T10:29:38;21.40;99.90
5059;DHT22;2548;52.050;11.036;2023-04-22T10:32:23;21.60;99.90
5059;DHT22;2548;52.050;11.036;2023-04-22T10:35:06;21.60;99.90
5059;DHT22;2548;52.050;11.036;2023-04-22T10:37:34;21.70;99.90
5059;DHT22;2548;52.050;11.036;2023-04-22T10:40:09;21.70;99.90
5059;DHT22;2548;52.050;11.036;2023-04-22T10:42:45;21.70;99.90
5059;DHT22;2548;52.050;11.036;2023-04-22T10:45:13;21.80;99.90
5059;DHT22;2548;52.050;11.036;2023-04-22T10:47:43;21.70;99.90
5059;DHT22;2548;52.050;11.036;2023-04-22T10:50:24;21.70;99.90
5059;DHT22;2548;52.050;11.036;2023-04-22T10:52:55;21.90;99.90
5059;DHT22;2548;52.050;11.036;2023-04-22T10:55:24;22.00;99.90
5059;DHT22;2548;52.050;11.036;2023-04-22T10:57:53;22.10;99.90
5059;DHT22;2548;52.050;11.036;2023-04-22T11:00:39;22.10;99.90
5059;DHT22;2548;52.050;11.036;2023-04-22T11:03:23;22.20;99.90
5059;DHT22;2548;52.050;11.036;2023-04-22T11:06:14;22.20;99.90
5059;DHT22;2548;52.050;11.036;2023-04-22T11:08:48;22.30;99.90
5059;DHT22;2548;52.050;11.036;2023-04-22T11:11:19;22.40;99.90
5059;DHT22;2548;52.050;11.036;2023-04-22T11:13:49;22.50;99.90
5059;DHT22;2548;52.050;11.036;2023-04-22T11:16:23;22.50;99.90
5059;DHT22;2548;52.050;11.036;2023-04-22T11:18:51;22.50;99.90
5059;DHT22;2548;52.050;11.036;2023-04-22T11:21:19;22.60;99.90
5059;DHT22;2548;52.050;11.036;2023-04-22T11:23:49;22.60;99.90
5059;DHT22;2548;52.050;11.036;2023-04-22T11:26:17;22.70;99.90
5059;DHT22;2548;52.050;11.036;2023-04-22T11:28:52;22.80;99.90
5059;DHT22;2548;52.050;11.036;2023-04-22T11:31:32;22.90;99.90
5059;DHT22;2548;52.050;11.036;2023-04-22T11:34:01;22.90;99.90
5059;DHT22;2548;52.050;11.036;2023-04-22T11:36:36;22.90;99.90
5059;DHT22;2548;52.050;11.036;2023-04-22T11:39:09;23.00;99.90
5059;DHT22;2548;52.050;11.036;2023-04-22T11:41:43;23.00;99.90
5059;DHT22;2548;52.050;11.036;2023-04-22T11:44:13;23.10;99.90
5059;DHT22;2548;52.050;11.036;2023-04-22T11:46:44;23.20;99.90
5059;DHT22;2548;52.050;11.036;2023-04-22T11:49:13;23.20;99.90
5059;DHT22;2548;52.050;11.036;2023-04-22T11:51:56;23.20;99.90
5059;DHT22;2548;52.050;11.036;2023-04-22T11:54:31;23.20;99.90
5059;DHT22;2548;52.050;11.036;2023-04-22T11:57:09;23.20;99.90
5059;DHT22;2548;52.050;11.036;2023-04-22T11:59:40;23.20;99.90
5059;DHT22;2548;52.050;11.036;2023-04-22T12:02:10;23.10;99.90
5059;DHT22;2548;52.050;11.036;2023-04-22T12:04:41;23.10;99.90
5059;DHT22;2548;52.050;11.036;2023-04-22T12:07:09;23.20;99.90
5059;DHT22;2548;52.050;11.036;2023-04-22T12:09:43;23.30;99.90
5059;DHT22;2548;52.050;11.036;2023-04-22T12:12:11;23.40;99.90
5059;DHT22;2548;52.050;11.036;2023-04-22T12:14:44;23.50;99.90
5059;DHT22;2548;52.050;11.036;2023-04-22T12:17:14;23.70;99.90
5059;DHT22;2548;52.050;11.036;2023-04-22T12:19:46;23.70;99.90
5059;DHT22;2548;52.050;11.036;2023-04-22T12:22:24;23.80;99.90
5059;DHT22;2548;52.050;11.036;2023-04-22T12:24:53;23.70;99.90
5059;DHT22;2548;52.050;11.036;2023-04-22T12:27:20;23.70;99.90
5059;DHT22;2548;52.050;11.036;2023-04-22T12:29:52;23.70;99.90
5059;DHT22;2548;52.050;11.036;2023-04-22T12:32:21;23.70;99.90
5059;DHT22;2548;52.050;11.036;2023-04-22T12:34:49;23.80;99.90
5059;DHT22;2548;52.050;11.036;2023-04-22T12:37:20;23.70;99.90
5059;DHT22;2548;52.050;11.036;2023-04-22T12:39:48;23.80;99.90
5059;DHT22;2548;52.050;11.036;2023-04-22T12:42:21;23.90;99.90
5059;DHT22;2548;52.050;11.036;2023-04-22T12:44:52;24.00;99.90
5059;DHT22;2548;52.050;11.036;2023-04-22T12:47:21;24.00;99.90
5059;DHT22;2548;52.050;11.036;2023-04-22T12:49:49;23.90;99.90
5059;DHT22;2548;52.050;11.036;2023-04-22T12:52:17;23.80;99.90
5059;DHT22;2548;52.050;11.036;2023-04-22T12:54:45;23.80;99.90
5059;DHT22;2548;52.050;11.036;2023-04-22T12:57:26;23.90;99.90
5059;DHT22;2548;52.050;11.036;2023-04-22T12:59:54;23.80;99.90
5059;DHT22;2548;52.050;11.036;2023-04-22T13:02:23;23.90;99.90
5059;DHT22;2548;52.050;11.036;2023-04-22T13:04:51;24.10;99.90
5059;DHT22;2548;52.050;11.036;2023-04-22T13:07:22;24.10;99.90
5059;DHT22;2548;52.050;11.036;2023-04-22T13:09:53;24.00;99.90
5059;DHT22;2548;52.050;11.036;2023-04-22T13:12:20;24.00;99.90
5059;DHT22;2548;52.050;11.036;2023-04-22T13:14:48;23.90;99.90
5059;DHT22;2548;52.050;11.036;2023-04-22T13:17:16;23.90;99.90
5059;DHT22;2548;52.050;11.036;2023-04-22T13:19:46;23.80;99.90
5059;DHT22;2548;52.050;11.036;2023-04-22T13:22:16;23.70;99.90
5059;DHT22;2548;52.050;11.036;2023-04-22T13:24:43;23.70;99.90
5059;DHT22;2548;52.050;11.036;2023-04-22T13:27:11;23.60;99.90
5059;DHT22;2548;52.050;11.036;2023-04-22T13:29:39;23.50;99.90
5059;DHT22;2548;52.050;11.036;2023-04-22T13:32:07;23.40;99.90
5059;DHT22;2548;52.050;11.036;2023-04-22T13:34:37;23.40;99.90
5059;DHT22;2548;52.050;11.036;2023-04-22T13:37:10;23.50;99.90
5059;DHT22;2548;52.050;11.036;2023-04-22T13:39:40;23.50;99.90
5059;DHT22;2548;52.050;11.036;2023-04-22T13:42:08;23.50;99.90
5059;DHT22;2548;52.050;11.036;2023-04-22T13:44:36;23.40;99.90
5059;DHT22;2548;52.050;11.036;2023-04-22T13:47:04;23.40;99.90
5059;DHT22;2548;52.050;11.036;2023-04-22T13:49:37;23.40;99.90
5059;DHT22;2548;52.050;11.036;2023-04-22T13:52:09;23.20;99.90
5059;DHT22;2548;52.050;11.036;2023-04-22T13:54:36;23.00;99.90
5059;DHT22;2548;52.050;11.036;2023-04-22T13:57:04;22.90;99.90
5059;DHT22;2548;52.050;11.036;2023-04-22T13:59:34;22.80;99.90
5059;DHT22;2548;52.050;11.036;2023-04-22T14:02:02;22.70;99.90
5059;DHT22;2548;52.050;11.036;2023-04-22T14:04:30;22.70;99.90
5059;DHT22;2548;52.050;11.036;2023-04-22T14:06:57;22.80;99.90
5059;DHT22;2548;52.050;11.036;2023-04-22T14:09:26;22.90;99.90
5059;DHT22;2548;52.050;11.036;2023-04-22T14:11:54;23.10;99.90
5059;DHT22;2548;52.050;11.036;2023-04-22T14:14:22;23.20;99.90
5059;DHT22;2548;52.050;11.036;2023-04-22T14:16:49;23.30;99.90
5059;DHT22;2548;52.050;11.036;2023-04-22T14:19:17;23.20;99.90
5059;DHT22;2548;52.050;11.036;2023-04-22T14:21:45;23.20;99.90
5059;DHT22;2548;52.050;11.036;2023-04-22T14:24:12;23.10;99.90
5059;DHT22;2548;52.050;11.036;2023-04-22T14:26:42;23.10;99.90
5059;DHT22;2548;52.050;11.036;2023-04-22T14:29:10;23.00;99.90
5059;DHT22;2548;52.050;11.036;2023-04-22T14:31:40;22.90;99.90
5059;DHT22;2548;52.050;11.036;2023-04-22T14:34:08;22.80;99.90
5059;DHT22;2548;52.050;11.036;2023-04-22T14:36:35;22.60;99.90
5059;DHT22;2548;52.050;11.036;2023-04-22T14:39:24;22.50;99.90
5059;DHT22;2548;52.050;11.036;2023-04-22T14:41:56;22.30;99.90
5059;DHT22;2548;52.050;11.036;2023-04-22T14:44:23;22.10;99.90
5059;DHT22;2548;52.050;11.036;2023-04-22T14:46:57;22.00;99.90
5059;DHT22;2548;52.050;11.036;2023-04-22T14:49:25;21.90;99.90
5059;DHT22;2548;52.050;11.036;2023-04-22T14:51:55;21.90;99.90
5059;DHT22;2548;52.050;11.036;2023-04-22T14:54:26;21.80;99.90
5059;DHT22;2548;52.050;11.036;2023-04-22T14:56:57;21.70;99.90
5059;DHT22;2548;52.050;11.036;2023-04-22T14:59:25;21.60;99.90
5059;DHT22;2548;52.050;11.036;2023-04-22T15:01:53;21.60;99.90
5059;DHT22;2548;52.050;11.036;2023-04-22T15:04:21;21.60;99.90
5059;DHT22;2548;52.050;11.036;2023-04-22T15:06:54;21.70;99.90
5059;DHT22;2548;52.050;11.036;2023-04-22T15:09:26;21.70;99.90
5059;DHT22;2548;52.050;11.036;2023-04-22T15:11:57;21.70;99.90
5059;DHT22;2548;52.050;11.036;2023-04-22T15:14:27;21.80;99.90
5059;DHT22;2548;52.050;11.036;2023-04-22T15:16:58;21.90;99.90
5059;DHT22;2548;52.050;11.036;2023-04-22T15:19:29;21.90;99.90
5059;DHT22;2548;52.050;11.036;2023-04-22T15:22:10;22.10;99.90
5059;DHT22;2548;52.050;11.036;2023-04-22T15:24:41;22.20;99.90
5059;DHT22;2548;52.050;11.036;2023-04-22T15:27:13;22.40;99.90
5059;DHT22;2548;52.050;11.036;2023-04-22T15:29:40;22.70;99.90
5059;DHT22;2548;52.050;11.036;2023-04-22T15:32:11;22.90;99.90
5059;DHT22;2548;52.050;11.036;2023-04-22T15:34:39;23.20;99.90
5059;DHT22;2548;52.050;11.036;2023-04-22T15:37:10;23.30;99.90
5059;DHT22;2548;52.050;11.036;2023-04-22T15:39:37;23.50;99.90
5059;DHT22;2548;52.050;11.036;2023-04-22T15:42:05;23.60;99.90
5059;DHT22;2548;52.050;11.036;2023-04-22T15:44:34;23.50;99.90
5059;DHT22;2548;52.050;11.036;2023-04-22T15:47:03;23.50;99.90
5059;DHT22;2548;52.050;11.036;2023-04-22T15:49:30;23.50;99.90
5059;DHT22;2548;52.050;11.036;2023-04-22T15:52:01;23.50;99.90
5059;DHT22;2548;52.050;11.036;2023-04-22T15:54:29;23.50;99.90
5059;DHT22;2548;52.050;11.036;2023-04-22T15:57:06;23.50;99.90
5059;DHT22;2548;52.050;11.036;2023-04-22T15:59:35;23.40;99.90
5059;DHT22;2548;52.050;11.036;2023-04-22T16:02:11;23.30;99.90
5059;DHT22;2548;52.050;11.036;2023-04-22T16:04:39;23.20;99.90
5059;DHT22;2548;52.050;11.036;2023-04-22T16:07:06;23.00;99.90
5059;DHT22;2548;52.050;11.036;2023-04-22T16:09:38;22.70;99.90
5059;DHT22;2548;52.050;11.036;2023-04-22T16:12:06;22.40;99.90
5059;DHT22;2548;52.050;11.036;2023-04-22T16:14:35;22.10;99.90